createdAt,value
2023-09-03T00:00:48.272Z,0.00
2023-09-03T00:01:47.605Z,0.00
2023-09-03T00:02:48.335Z,0.00
2023-09-03T00:03:47.581Z,0.00
2023-09-03T00:04:47.411Z,0.00
2023-09-03T00:05:47.450Z,0.00
2023-09-03T00:06:48.333Z,0.00
2023-09-03T00:07:47.371Z,0.00
2023-09-03T00:08:47.428Z,0.00
2023-09-03T00:09:56.796Z,0.00
2023-09-03T00:11:11.329Z,0.00
2023-09-03T00:12:00.421Z,0.00
2023-09-03T00:12:47.084Z,0.00
2023-09-03T00:13:47.139Z,0.00
2023-09-03T00:14:47.023Z,0.00
2023-09-03T00:15:47.144Z,0.00
2023-09-03T00:16:47.159Z,0.00
2023-09-03T00:17:47.048Z,0.00
2023-09-03T00:18:47.009Z,0.00
2023-09-03T00:19:46.833Z,0.00
2023-09-03T00:20:46.920Z,0.00
2023-09-03T00:21:46.789Z,0.00
2023-09-03T00:22:46.734Z,0.00
2023-09-03T00:23:46.693Z,0.00
2023-09-03T00:24:46.697Z,0.00
2023-09-03T00:25:46.657Z,0.00
2023-09-03T00:26:46.624Z,0.00
2023-09-03T00:27:46.525Z,0.00
2023-09-03T00:28:46.588Z,0.00
2023-09-03T00:29:46.595Z,0.00
2023-09-03T00:30:46.459Z,0.00
2023-09-03T00:31:46.423Z,0.00
2023-09-03T00:32:46.399Z,0.00
2023-09-03T00:33:46.323Z,0.00
2023-09-03T00:34:46.265Z,0.00
2023-09-03T00:35:47.027Z,0.00
2023-09-03T00:36:46.193Z,0.00
2023-09-03T00:37:46.212Z,0.00
2023-09-03T00:38:46.141Z,0.00
2023-09-03T00:39:46.106Z,0.00
2023-09-03T00:40:46.057Z,0.00
2023-09-03T00:41:45.988Z,0.00
2023-09-03T00:42:46.006Z,0.00
2023-09-03T00:43:45.990Z,0.00
2023-09-03T00:44:50.425Z,0.00
2023-09-03T00:45:45.908Z,0.00
2023-09-03T00:46:45.849Z,0.00
2023-09-03T00:47:45.894Z,0.00
2023-09-03T00:48:45.729Z,0.00
2023-09-03T00:49:45.691Z,0.00
2023-09-03T00:50:45.751Z,0.00
2023-09-03T00:51:47.422Z,0.00
2023-09-03T00:52:45.644Z,0.00
2023-09-03T00:53:45.639Z,0.00
2023-09-03T00:54:46.461Z,0.00
2023-09-03T00:55:45.513Z,0.00
2023-09-03T00:56:45.436Z,0.00
2023-09-03T00:57:45.429Z,0.00
2023-09-03T00:58:45.410Z,0.00
2023-09-03T00:59:45.343Z,0.00
2023-09-03T01:00:45.288Z,0.00
2023-09-03T01:01:46.019Z,0.00
2023-09-03T01:02:45.999Z,0.00
2023-09-03T01:03:45.261Z,0.00
2023-09-03T01:04:45.161Z,0.00
2023-09-03T01:05:45.458Z,0.00
2023-09-03T01:06:45.102Z,0.00
2023-09-03T01:07:45.047Z,0.00
2023-09-03T01:08:44.981Z,0.00
2023-09-03T01:09:46.967Z,0.00
2023-09-03T01:10:44.910Z,0.00
2023-09-03T01:11:44.873Z,0.00
2023-09-03T01:12:44.859Z,0.00
2023-09-03T01:13:44.851Z,0.00
2023-09-03T01:14:44.748Z,0.00
2023-09-03T01:15:44.811Z,0.00
2023-09-03T01:16:44.680Z,0.00
2023-09-03T01:17:44.645Z,0.00
2023-09-03T01:18:44.626Z,0.00
2023-09-03T01:19:44.646Z,0.00
2023-09-03T01:20:44.721Z,0.00
2023-09-03T01:21:45.448Z,0.00
2023-09-03T01:25:39.267Z,0.00
2023-09-03T01:26:37.308Z,0.00
2023-09-03T01:27:40.463Z,0.00
2023-09-03T01:30:11.203Z,0.00
2023-09-03T01:31:11.273Z,0.00
2023-09-03T01:32:10.712Z,0.00
2023-09-03T01:33:10.645Z,0.00
2023-09-03T01:34:10.622Z,0.00
2023-09-03T01:35:10.604Z,0.00
2023-09-03T01:36:10.692Z,0.00
2023-09-03T01:37:10.717Z,0.00
2023-09-03T01:38:11.341Z,0.00
2023-09-03T01:39:10.474Z,0.00
2023-09-03T01:40:10.425Z,0.00
2023-09-03T01:41:10.435Z,0.00
2023-09-03T01:42:10.381Z,0.00
2023-09-03T01:43:10.332Z,0.00
2023-09-03T01:44:10.260Z,0.00
2023-09-03T01:45:10.736Z,0.00
2023-09-03T01:46:10.285Z,0.00
2023-09-03T01:47:10.155Z,0.00
2023-09-03T01:48:10.199Z,0.00
2023-09-03T01:49:10.176Z,0.00
2023-09-03T01:50:10.017Z,0.00
2023-09-03T01:51:12.316Z,0.00
2023-09-03T01:52:09.961Z,0.00
2023-09-03T01:53:09.913Z,0.00
2023-09-03T01:54:09.879Z,0.00
2023-09-03T01:55:09.856Z,0.00
2023-09-03T01:56:11.740Z,0.00
2023-09-03T01:57:09.813Z,0.00
2023-09-03T01:58:09.780Z,0.00
2023-09-03T01:59:09.683Z,0.00
2023-09-03T02:00:09.650Z,0.00
2023-09-03T02:01:09.634Z,0.00
2023-09-03T02:02:09.650Z,0.00
2023-09-03T02:03:09.542Z,0.00
2023-09-03T02:04:09.474Z,0.00
2023-09-03T02:05:09.541Z,0.00
2023-09-03T02:06:09.534Z,0.00
2023-09-03T02:07:09.511Z,0.00
2023-09-03T02:08:10.258Z,0.00
2023-09-03T02:09:09.286Z,0.00
2023-09-03T02:10:09.300Z,0.00
2023-09-03T02:11:09.361Z,0.00
2023-09-03T02:12:09.183Z,0.00
2023-09-03T02:13:09.213Z,0.00
2023-09-03T02:14:09.086Z,0.00
2023-09-03T02:15:09.080Z,0.00
2023-09-03T02:16:09.064Z,0.00
2023-09-03T02:17:18.329Z,0.00
2023-09-03T02:18:08.968Z,0.00
2023-09-03T02:19:08.899Z,0.00
2023-09-03T02:20:08.915Z,0.00
2023-09-03T02:21:27.332Z,0.00
2023-09-03T02:22:08.779Z,0.00
2023-09-03T02:23:09.286Z,0.00
2023-09-03T02:24:08.813Z,0.00
2023-09-03T02:25:08.717Z,0.00
2023-09-03T02:26:09.356Z,0.00
2023-09-03T02:27:08.618Z,0.00
2023-09-03T02:28:08.672Z,0.00
2023-09-03T02:31:02.715Z,0.00
2023-09-03T02:31:49.697Z,0.00
2023-09-03T02:32:48.557Z,0.00
2023-09-03T02:33:48.611Z,0.00
2023-09-03T02:34:48.449Z,0.00
2023-09-03T02:35:48.465Z,0.00
2023-09-03T02:36:50.331Z,0.00
2023-09-03T02:37:48.477Z,0.00
2023-09-03T02:38:48.365Z,0.00
2023-09-03T02:39:48.318Z,0.00
2023-09-03T02:40:48.292Z,0.00
2023-09-03T02:41:48.216Z,0.00
2023-09-03T02:42:48.266Z,0.00
2023-09-03T02:43:48.286Z,0.00
2023-09-03T02:44:48.152Z,0.00
2023-09-03T02:45:48.263Z,0.00
2023-09-03T02:46:48.037Z,0.00
2023-09-03T02:47:48.021Z,0.00
2023-09-03T02:48:47.982Z,0.00
2023-09-03T02:49:47.954Z,0.00
2023-09-03T02:50:48.753Z,0.00
2023-09-03T02:51:47.858Z,0.00
2023-09-03T02:52:47.802Z,0.00
2023-09-03T02:53:47.756Z,0.00
2023-09-03T02:54:47.740Z,0.00
2023-09-03T02:55:47.729Z,0.00
2023-09-03T02:56:47.785Z,0.00
2023-09-03T02:57:47.682Z,0.00
2023-09-03T02:58:47.678Z,0.00
2023-09-03T02:59:47.527Z,0.00
2023-09-03T03:00:47.495Z,0.00
2023-09-03T03:01:47.520Z,0.00
2023-09-03T03:02:47.434Z,0.00
2023-09-03T03:03:50.227Z,0.00
2023-09-03T03:04:47.514Z,0.00
2023-09-03T03:05:47.375Z,0.00
2023-09-03T03:06:47.371Z,0.00
2023-09-03T03:07:47.275Z,0.00
2023-09-03T03:08:47.202Z,0.00
2023-09-03T03:09:47.182Z,0.00
2023-09-03T03:10:47.727Z,0.00
2023-09-03T03:11:47.191Z,0.00
2023-09-03T03:12:47.014Z,0.00
2023-09-03T03:13:47.026Z,0.00
2023-09-03T03:14:46.966Z,0.00
2023-09-03T03:15:46.959Z,0.00
2023-09-03T03:16:46.920Z,0.00
2023-09-03T03:17:46.893Z,0.00
2023-09-03T03:18:46.820Z,0.00
2023-09-03T03:19:46.783Z,0.00
2023-09-03T03:20:46.734Z,0.00
2023-09-03T03:21:46.694Z,0.00
2023-09-03T03:22:48.246Z,0.00
2023-09-03T03:23:46.741Z,0.00
2023-09-03T03:24:46.626Z,0.00
2023-09-03T03:25:46.694Z,0.00
2023-09-03T03:26:46.666Z,0.00
2023-09-03T03:27:46.603Z,0.00
2023-09-03T03:28:46.461Z,0.00
2023-09-03T03:29:46.389Z,0.00
2023-09-03T03:30:46.338Z,0.00
2023-09-03T03:31:47.404Z,0.00
2023-09-03T03:32:47.276Z,0.00
2023-09-03T03:33:46.292Z,0.00
2023-09-03T03:34:46.180Z,0.00
2023-09-03T03:35:46.162Z,0.00
2023-09-03T03:36:46.131Z,0.00
2023-09-03T03:37:46.159Z,0.00
2023-09-03T03:38:46.087Z,0.00
2023-09-03T03:39:46.718Z,0.00
2023-09-03T03:40:45.923Z,0.00
2023-09-03T03:41:45.925Z,0.00
2023-09-03T03:42:45.875Z,0.00
2023-09-03T03:43:45.873Z,0.00
2023-09-03T03:44:45.830Z,0.00
2023-09-03T03:45:46.797Z,0.00
2023-09-03T03:46:47.258Z,0.00
2023-09-03T03:47:45.776Z,0.00
2023-09-03T03:48:45.745Z,0.00
2023-09-03T03:49:45.633Z,0.00
2023-09-03T03:50:45.560Z,0.00
2023-09-03T03:51:45.528Z,0.00
2023-09-03T03:52:45.461Z,0.00
2023-09-03T03:53:45.475Z,0.00
2023-09-03T03:54:45.401Z,0.00
2023-09-03T03:55:45.348Z,0.00
2023-09-03T03:56:45.329Z,0.00
2023-09-03T03:57:45.431Z,0.00
2023-09-03T03:58:45.718Z,0.00
2023-09-03T03:59:45.210Z,0.00
2023-09-03T04:00:46.172Z,0.00
2023-09-03T04:01:45.208Z,0.00
2023-09-03T04:02:46.890Z,0.00
2023-09-03T04:03:45.225Z,0.00
2023-09-03T04:04:45.017Z,0.00
2023-09-03T04:05:44.998Z,0.00
2023-09-03T04:06:44.957Z,0.00
2023-09-03T04:07:44.902Z,0.00
2023-09-03T04:08:45.174Z,0.00
2023-09-03T04:09:44.807Z,0.00
2023-09-03T04:10:44.789Z,0.00
2023-09-03T04:11:44.768Z,0.00
2023-09-03T04:12:44.730Z,0.00
2023-09-03T04:13:44.680Z,0.00
2023-09-03T04:14:44.623Z,0.00
2023-09-03T04:15:44.652Z,0.00
2023-09-03T04:16:44.624Z,0.00
2023-09-03T04:17:46.150Z,0.00
2023-09-03T04:18:44.506Z,0.00
2023-09-03T04:19:44.513Z,0.00
2023-09-03T04:20:44.458Z,4.00
2023-09-03T04:21:44.368Z,4.00
2023-09-03T04:22:46.272Z,0.00
2023-09-03T04:23:44.299Z,4.00
2023-09-03T04:24:44.323Z,4.00
2023-09-03T04:25:44.724Z,8.00
2023-09-03T04:26:44.686Z,4.00
2023-09-03T04:27:44.728Z,8.00
2023-09-03T04:28:44.197Z,8.00
2023-09-03T04:29:44.049Z,8.00
2023-09-03T04:30:44.093Z,12.00
2023-09-03T04:31:44.046Z,16.00
2023-09-03T04:32:45.274Z,16.00
2023-09-03T04:33:44.697Z,16.00
2023-09-03T04:34:43.931Z,20.00
2023-09-03T04:35:43.848Z,24.00
2023-09-03T04:36:44.778Z,28.00
2023-09-03T04:37:44.779Z,28.00
2023-09-03T04:38:44.752Z,32.00
2023-09-03T04:39:43.740Z,40.00
2023-09-03T04:40:43.671Z,48.00
2023-09-03T04:41:44.223Z,48.00
2023-09-03T04:42:43.679Z,52.00
2023-09-03T04:43:44.263Z,60.00
2023-09-03T04:44:43.460Z,68.00
2023-09-03T04:45:43.453Z,72.00
2023-09-03T04:46:43.486Z,80.00
2023-09-03T04:47:43.416Z,88.00
2023-09-03T04:48:53.060Z,96.00
2023-09-03T04:49:52.806Z,104.00
2023-09-03T04:51:05.280Z,108.00
2023-09-03T04:51:43.202Z,120.00
2023-09-03T04:52:43.141Z,132.00
2023-09-03T04:53:43.135Z,148.00
2023-09-03T04:54:43.070Z,164.00
2023-09-03T04:55:43.036Z,172.00
2023-09-03T04:56:42.990Z,196.00
2023-09-03T04:57:42.970Z,212.00
2023-09-03T04:58:43.469Z,240.00
2023-09-03T04:59:42.901Z,264.00
2023-09-03T05:00:42.855Z,296.00
2023-09-03T05:01:42.842Z,320.00
2023-09-03T05:02:42.823Z,344.00
2023-09-03T05:03:42.872Z,384.00
2023-09-03T05:04:42.684Z,424.00
2023-09-03T05:05:42.685Z,460.00
2023-09-03T05:06:42.652Z,484.00
2023-09-03T05:07:42.628Z,516.00
2023-09-03T05:08:42.536Z,544.00
2023-09-03T05:09:42.500Z,576.00
2023-09-03T05:10:42.461Z,612.00
2023-09-03T05:11:42.450Z,656.00
2023-09-03T05:12:42.382Z,696.00
2023-09-03T05:13:42.362Z,756.00
2023-09-03T05:14:42.308Z,828.00
2023-09-03T05:15:42.279Z,884.00
2023-09-03T05:16:42.283Z,944.00
2023-09-03T05:17:42.248Z,984.00
2023-09-03T05:18:42.159Z,1036.00
2023-09-03T05:19:42.124Z,1092.00
2023-09-03T05:20:42.074Z,1104.00
2023-09-03T05:21:42.061Z,1116.00
2023-09-03T05:22:42.004Z,1124.00
2023-09-03T05:23:41.973Z,1128.00
2023-09-03T05:24:41.927Z,1160.00
2023-09-03T05:25:41.891Z,1200.00
2023-09-03T05:26:41.865Z,1264.00
2023-09-03T05:27:41.844Z,1272.00
2023-09-03T05:28:41.781Z,1304.00
2023-09-03T05:29:41.789Z,1376.00
2023-09-03T05:30:41.701Z,1432.00
2023-09-03T05:31:41.734Z,1428.00
2023-09-03T05:32:41.671Z,1424.00
2023-09-03T05:33:41.594Z,1404.00
2023-09-03T05:34:41.553Z,1388.00
2023-09-03T05:35:41.520Z,1392.00
2023-09-03T05:36:41.493Z,1380.00
2023-09-03T05:37:41.441Z,1408.00
2023-09-03T05:38:41.407Z,1452.00
2023-09-03T05:39:41.386Z,1532.00
2023-09-03T05:40:41.323Z,1540.00
2023-09-03T05:41:41.314Z,1600.00
2023-09-03T05:42:41.259Z,1628.00
2023-09-03T05:43:41.210Z,1700.00
2023-09-03T05:44:41.174Z,1676.00
2023-09-03T05:45:41.178Z,1596.00
2023-09-03T05:46:41.117Z,1608.00
2023-09-03T05:47:41.106Z,1664.00
2023-09-03T05:48:41.029Z,1768.00
2023-09-03T05:49:40.992Z,1824.00
2023-09-03T05:50:40.951Z,2064.00
2023-09-03T05:51:40.917Z,2104.00
2023-09-03T05:52:40.880Z,2056.00
2023-09-03T05:53:40.865Z,2228.00
2023-09-03T05:54:40.816Z,2464.00
2023-09-03T05:55:40.990Z,2504.00
2023-09-03T05:56:40.732Z,2204.00
2023-09-03T05:57:40.692Z,2864.00
2023-09-03T05:58:40.649Z,2940.00
2023-09-03T05:59:40.644Z,2876.00
2023-09-03T06:00:43.451Z,2696.00
2023-09-03T06:01:40.586Z,2812.00
2023-09-03T06:02:40.508Z,2956.00
2023-09-03T06:03:40.534Z,3052.00
2023-09-03T06:04:40.424Z,3156.00
2023-09-03T06:05:40.484Z,3196.00
2023-09-03T06:06:40.352Z,3168.00
2023-09-03T06:07:40.352Z,3544.00
2023-09-03T06:08:40.336Z,3632.00
2023-09-03T06:09:40.266Z,3544.00
2023-09-03T06:10:40.203Z,3388.00
2023-09-03T06:11:40.173Z,3156.00
2023-09-03T06:12:40.121Z,3116.00
2023-09-03T06:13:40.116Z,3268.00
2023-09-03T06:14:41.083Z,3612.00
2023-09-03T06:15:40.032Z,3796.00
2023-09-03T06:16:39.991Z,4004.00
2023-09-03T06:17:39.962Z,3480.00
2023-09-03T06:18:39.999Z,3228.00
2023-09-03T06:19:39.900Z,3272.00
2023-09-03T06:20:39.838Z,3408.00
2023-09-03T06:21:39.800Z,3384.00
2023-09-03T06:22:39.754Z,3276.00
2023-09-03T06:23:39.741Z,3456.00
2023-09-03T06:24:39.684Z,3632.00
2023-09-03T06:25:39.662Z,3824.00
2023-09-03T06:26:39.607Z,3900.00
2023-09-03T06:27:39.586Z,4508.00
2023-09-03T06:28:39.535Z,4844.00
2023-09-03T06:29:48.062Z,4960.00
2023-09-03T06:30:39.463Z,5052.00
2023-09-03T06:31:39.471Z,5304.00
2023-09-03T06:32:39.406Z,5252.00
2023-09-03T06:33:39.342Z,5476.00
2023-09-03T06:34:39.310Z,5532.00
2023-09-03T06:35:39.294Z,5548.00
2023-09-03T06:36:39.230Z,5164.00
2023-09-03T06:37:39.205Z,5832.00
2023-09-03T06:38:39.171Z,5344.00
2023-09-03T06:39:39.126Z,5388.00
2023-09-03T06:40:39.100Z,4952.00
2023-09-03T06:41:39.073Z,4868.00
2023-09-03T06:42:39.018Z,4968.00
2023-09-03T06:43:38.976Z,5140.00
2023-09-03T06:44:38.965Z,5196.00
2023-09-03T06:45:38.920Z,5504.00
2023-09-03T06:46:38.951Z,6164.00
2023-09-03T06:47:38.963Z,6520.00
2023-09-03T06:48:38.790Z,6860.00
2023-09-03T06:49:38.768Z,7144.00
2023-09-03T06:50:38.744Z,7008.00
2023-09-03T06:51:38.684Z,7196.00
2023-09-03T06:52:38.649Z,7156.00
2023-09-03T06:53:38.625Z,6424.00
2023-09-03T06:54:38.574Z,6864.00
2023-09-03T06:55:38.547Z,7156.00
2023-09-03T06:56:38.517Z,6272.00
2023-09-03T06:57:38.464Z,6172.00
2023-09-03T06:58:38.438Z,6328.00
2023-09-03T06:59:38.427Z,6352.00
2023-09-03T07:00:38.393Z,6192.00
2023-09-03T07:01:38.382Z,6396.00
2023-09-03T07:02:38.314Z,6428.00
2023-09-03T07:03:38.315Z,6420.00
2023-09-03T07:04:38.218Z,6224.00
2023-09-03T07:05:38.206Z,6600.00
2023-09-03T07:06:38.142Z,7168.00
2023-09-03T07:08:13.964Z,6800.00
2023-09-03T07:08:38.082Z,7368.00
2023-09-03T07:09:38.067Z,7796.00
2023-09-03T07:10:38.077Z,7396.00
2023-09-03T07:11:37.961Z,7108.00
2023-09-03T07:12:37.943Z,7448.00
2023-09-03T07:13:37.899Z,7728.00
2023-09-03T07:14:37.855Z,8172.00
2023-09-03T07:15:38.014Z,8248.00
2023-09-03T07:16:37.841Z,7880.00
2023-09-03T07:17:37.797Z,8252.00
2023-09-03T07:18:37.756Z,8328.00
2023-09-03T07:19:37.712Z,7568.00
2023-09-03T07:20:37.722Z,7208.00
2023-09-03T07:21:37.750Z,7464.00
2023-09-03T07:22:37.730Z,7560.00
2023-09-03T07:23:37.534Z,7856.00
2023-09-03T07:24:37.497Z,7552.00
2023-09-03T07:25:37.465Z,7676.00
2023-09-03T07:26:37.461Z,7832.00
2023-09-03T07:27:37.405Z,7860.00
2023-09-03T07:28:37.360Z,7540.00
2023-09-03T07:29:37.322Z,7216.00
2023-09-03T07:30:37.328Z,6800.00
2023-09-03T07:31:37.242Z,6652.00
2023-09-03T07:32:37.241Z,6500.00
2023-09-03T07:33:37.201Z,6296.00
2023-09-03T07:34:37.149Z,6400.00
2023-09-03T07:35:37.120Z,6832.00
2023-09-03T07:36:37.083Z,7828.00
2023-09-03T07:37:37.026Z,8448.00
2023-09-03T07:38:36.996Z,8060.00
2023-09-03T07:39:36.974Z,7680.00
2023-09-03T07:40:36.925Z,7216.00
2023-09-03T07:41:36.887Z,7204.00
2023-09-03T07:42:36.859Z,7252.00
2023-09-03T07:43:36.837Z,7316.00
2023-09-03T07:44:36.782Z,7456.00
2023-09-03T07:45:36.751Z,8104.00
2023-09-03T07:46:36.829Z,8424.00
2023-09-03T07:47:36.727Z,9292.00
2023-09-03T07:48:36.686Z,9512.00
2023-09-03T07:49:36.614Z,9140.00
2023-09-03T07:50:36.573Z,8980.00
2023-09-03T07:51:36.560Z,9248.00
2023-09-03T07:52:36.515Z,9636.00
2023-09-03T07:53:36.476Z,11472.00
2023-09-03T07:54:36.442Z,11372.00
2023-09-03T07:55:36.427Z,11916.00
2023-09-03T07:56:36.378Z,12900.00
2023-09-03T07:57:36.356Z,13356.00
2023-09-03T07:58:36.298Z,15220.00
2023-09-03T07:59:36.272Z,15524.00
2023-09-03T08:00:36.255Z,14868.00
2023-09-03T08:01:36.203Z,16032.00
2023-09-03T08:02:36.171Z,18112.00
2023-09-03T08:03:36.208Z,19904.00
2023-09-03T08:04:36.102Z,18336.00
2023-09-03T08:05:36.052Z,18304.00
2023-09-03T08:06:36.021Z,16000.00
2023-09-03T08:07:36.003Z,18176.00
2023-09-03T08:08:35.996Z,18016.00
2023-09-03T08:09:35.939Z,17856.00
2023-09-03T08:10:35.889Z,16224.00
2023-09-03T08:11:35.856Z,19232.00
2023-09-03T08:12:35.808Z,20000.00
2023-09-03T08:13:36.761Z,19328.00
2023-09-03T08:14:35.811Z,19520.00
2023-09-03T08:15:44.315Z,21664.00
2023-09-03T08:16:35.716Z,22208.00
2023-09-03T08:17:35.655Z,20224.00
2023-09-03T08:18:35.624Z,18784.00
2023-09-03T08:19:35.592Z,18112.00
2023-09-03T08:20:35.555Z,17408.00
2023-09-03T08:21:36.037Z,15840.00
2023-09-03T08:22:35.487Z,16320.00
2023-09-03T08:23:35.462Z,16320.00
2023-09-03T08:24:35.425Z,15392.00
2023-09-03T08:25:35.398Z,16192.00
2023-09-03T08:26:35.393Z,14740.00
2023-09-03T08:27:35.338Z,14764.00
2023-09-03T08:28:35.310Z,16000.00
2023-09-03T08:29:35.277Z,18112.00
2023-09-03T08:30:35.255Z,19488.00
2023-09-03T08:31:35.264Z,18496.00
2023-09-03T08:32:35.223Z,19456.00
2023-09-03T08:33:35.140Z,19968.00
2023-09-03T08:34:35.122Z,18624.00
2023-09-03T08:35:35.108Z,15116.00
2023-09-03T08:36:35.049Z,16352.00
2023-09-03T08:37:35.057Z,17376.00
2023-09-03T08:38:34.985Z,17344.00
2023-09-03T08:39:34.968Z,17024.00
2023-09-03T08:40:34.922Z,16192.00
2023-09-03T08:41:34.913Z,16768.00
2023-09-03T08:42:34.886Z,17024.00
2023-09-03T08:43:34.844Z,16096.00
2023-09-03T08:44:34.850Z,15468.00
2023-09-03T08:45:34.818Z,16800.00
2023-09-03T08:46:34.749Z,15840.00
2023-09-03T08:47:34.748Z,15568.00
2023-09-03T08:48:34.687Z,17728.00
2023-09-03T08:49:34.649Z,16800.00
2023-09-03T08:50:34.647Z,19072.00
2023-09-03T08:51:34.598Z,18912.00
2023-09-03T08:52:34.550Z,18368.00
2023-09-03T08:53:34.547Z,19104.00
2023-09-03T08:54:34.487Z,18944.00
2023-09-03T08:55:34.457Z,18304.00
2023-09-03T08:56:34.463Z,18848.00
2023-09-03T08:57:34.402Z,19040.00
2023-09-03T08:58:34.372Z,19200.00
2023-09-03T08:59:34.337Z,18272.00
2023-09-03T09:00:34.388Z,18944.00
2023-09-03T09:01:34.468Z,18560.00
2023-09-03T09:02:34.321Z,18112.00
2023-09-03T09:03:34.337Z,18400.00
2023-09-03T09:04:34.193Z,17472.00
2023-09-03T09:05:35.722Z,18400.00
2023-09-03T09:06:34.133Z,17856.00
2023-09-03T09:07:34.100Z,14860.00
2023-09-03T09:08:34.077Z,17696.00
2023-09-03T09:09:34.028Z,17888.00
2023-09-03T09:10:34.076Z,18592.00
2023-09-03T09:11:33.981Z,19232.00
2023-09-03T09:12:33.945Z,19072.00
2023-09-03T09:13:33.920Z,18496.00
2023-09-03T09:14:33.895Z,18432.00
2023-09-03T09:15:33.901Z,19136.00
2023-09-03T09:16:33.823Z,19680.00
2023-09-03T09:17:33.833Z,17792.00
2023-09-03T09:18:33.770Z,17568.00
2023-09-03T09:19:33.742Z,18112.00
2023-09-03T09:20:33.728Z,18464.00
2023-09-03T09:21:33.700Z,17568.00
2023-09-03T09:22:33.636Z,18720.00
2023-09-03T09:23:33.628Z,19680.00
2023-09-03T09:24:43.558Z,20128.00
2023-09-03T09:25:43.584Z,20480.00
2023-09-03T09:26:42.623Z,20000.00
2023-09-03T09:27:35.153Z,19360.00
2023-09-03T09:28:33.495Z,19712.00
2023-09-03T09:29:33.435Z,19840.00
2023-09-03T09:30:33.411Z,19296.00
2023-09-03T09:31:33.409Z,19072.00
2023-09-03T09:32:33.364Z,18272.00
2023-09-03T09:33:33.342Z,18016.00
2023-09-03T09:34:33.335Z,17664.00
2023-09-03T09:35:33.308Z,16832.00
2023-09-03T09:36:33.252Z,17312.00
2023-09-03T09:37:33.204Z,17152.00
2023-09-03T09:38:33.183Z,15408.00
2023-09-03T09:39:33.162Z,15104.00
2023-09-03T09:40:33.142Z,16384.00
2023-09-03T09:41:33.096Z,16448.00
2023-09-03T09:42:33.058Z,16480.00
2023-09-03T09:43:33.049Z,16928.00
2023-09-03T09:44:33.006Z,18336.00
2023-09-03T09:45:33.008Z,19936.00
2023-09-03T09:46:33.148Z,19168.00
2023-09-03T09:47:32.935Z,18976.00
2023-09-03T09:48:32.877Z,17952.00
2023-09-03T09:49:32.861Z,17952.00
2023-09-03T09:50:32.822Z,18368.00
2023-09-03T09:51:32.812Z,18080.00
2023-09-03T09:52:32.776Z,17280.00
2023-09-03T09:53:32.753Z,17920.00
2023-09-03T09:54:32.714Z,17152.00
2023-09-03T09:55:32.704Z,16992.00
2023-09-03T09:56:32.689Z,17696.00
2023-09-03T09:57:32.637Z,18304.00
2023-09-03T09:58:32.596Z,17888.00
2023-09-03T09:59:32.579Z,17120.00
2023-09-03T10:00:32.641Z,17056.00
2023-09-03T10:01:32.512Z,17248.00
2023-09-03T10:02:32.510Z,17312.00
2023-09-03T10:03:32.523Z,18048.00
2023-09-03T10:04:32.443Z,16576.00
2023-09-03T10:05:32.447Z,16800.00
2023-09-03T10:06:32.426Z,16736.00
2023-09-03T10:07:32.353Z,16928.00
2023-09-03T10:08:32.315Z,16448.00
2023-09-03T10:09:32.288Z,15724.00
2023-09-03T10:10:32.270Z,17248.00
2023-09-03T10:11:32.266Z,16768.00
2023-09-03T10:12:32.193Z,16992.00
2023-09-03T10:13:32.172Z,16704.00
2023-09-03T10:14:32.144Z,17856.00
2023-09-03T10:15:32.193Z,17056.00
2023-09-03T10:16:33.873Z,16768.00
2023-09-03T10:17:32.155Z,15872.00
2023-09-03T10:18:32.036Z,16000.00
2023-09-03T10:19:32.004Z,17120.00
2023-09-03T10:20:32.006Z,17920.00
2023-09-03T10:21:52.559Z,17216.00
2023-09-03T10:22:31.921Z,16992.00
2023-09-03T10:23:31.881Z,15464.00
2023-09-03T10:24:31.867Z,16480.00
2023-09-03T10:25:31.829Z,16064.00
2023-09-03T10:26:31.826Z,16384.00
2023-09-03T10:27:31.784Z,17344.00
2023-09-03T10:28:31.831Z,16928.00
2023-09-03T10:29:31.789Z,17280.00
2023-09-03T10:30:31.689Z,16512.00
2023-09-03T10:31:31.669Z,16192.00
2023-09-03T10:32:31.672Z,15296.00
2023-09-03T10:33:31.611Z,15152.00
2023-09-03T10:34:31.567Z,15564.00
2023-09-03T10:35:31.545Z,14528.00
2023-09-03T10:36:31.517Z,13708.00
2023-09-03T10:37:31.480Z,14632.00
2023-09-03T10:38:31.463Z,14704.00
2023-09-03T10:39:31.429Z,15064.00
2023-09-03T10:40:31.396Z,15492.00
2023-09-03T10:41:31.377Z,15212.00
2023-09-03T10:42:31.373Z,14620.00
2023-09-03T10:43:31.312Z,15256.00
2023-09-03T10:44:31.308Z,15904.00
2023-09-03T10:45:31.258Z,15408.00
2023-09-03T10:46:31.248Z,14972.00
2023-09-03T10:47:31.251Z,15116.00
2023-09-03T10:48:31.164Z,16160.00
2023-09-03T10:49:39.893Z,16544.00
2023-09-03T10:50:31.132Z,16992.00
2023-09-03T10:51:31.156Z,16416.00
2023-09-03T10:52:31.050Z,16384.00
2023-09-03T10:53:31.090Z,17152.00
2023-09-03T10:54:30.993Z,16640.00
2023-09-03T10:55:30.971Z,16480.00
2023-09-03T10:56:30.925Z,15592.00
2023-09-03T10:57:30.926Z,15600.00
2023-09-03T10:58:30.881Z,16544.00
2023-09-03T10:59:30.845Z,17792.00
2023-09-03T11:00:30.817Z,17408.00
2023-09-03T11:01:30.817Z,17600.00
2023-09-03T11:02:30.807Z,18272.00
2023-09-03T11:03:30.790Z,18624.00
2023-09-03T11:04:30.734Z,18368.00
2023-09-03T11:05:30.669Z,18176.00
2023-09-03T11:06:30.634Z,16416.00
2023-09-03T11:07:30.605Z,17056.00
2023-09-03T11:08:30.644Z,16608.00
2023-09-03T11:09:30.556Z,15384.00
2023-09-03T11:10:30.516Z,16512.00
2023-09-03T11:11:31.705Z,16576.00
2023-09-03T11:12:30.464Z,16864.00
2023-09-03T11:13:39.166Z,16736.00
2023-09-03T11:14:30.420Z,17184.00
2023-09-03T11:15:30.412Z,17696.00
2023-09-03T11:16:30.354Z,17408.00
2023-09-03T11:17:30.374Z,16608.00
2023-09-03T11:18:30.307Z,16448.00
2023-09-03T11:19:30.267Z,15492.00
2023-09-03T11:20:43.664Z,18016.00
2023-09-03T11:21:30.211Z,18432.00
2023-09-03T11:22:30.202Z,17600.00
2023-09-03T11:23:31.925Z,16992.00
2023-09-03T11:24:30.620Z,16544.00
2023-09-03T11:25:30.085Z,16224.00
2023-09-03T11:26:30.061Z,15636.00
2023-09-03T11:27:30.045Z,15380.00
2023-09-03T11:28:30.019Z,15312.00
2023-09-03T11:29:29.976Z,16224.00
2023-09-03T11:30:29.945Z,16448.00
2023-09-03T11:31:30.010Z,17088.00
2023-09-03T11:32:30.027Z,16512.00
2023-09-03T11:33:29.861Z,16576.00
2023-09-03T11:34:29.827Z,16768.00
2023-09-03T11:35:29.807Z,16384.00
2023-09-03T11:36:29.774Z,16192.00
2023-09-03T11:37:29.759Z,16032.00
2023-09-03T11:38:29.716Z,15904.00
2023-09-03T11:39:29.697Z,15092.00
2023-09-03T11:40:29.665Z,15244.00
2023-09-03T11:41:29.630Z,14888.00
2023-09-03T11:42:29.636Z,14292.00
2023-09-03T11:43:29.577Z,14408.00
2023-09-03T11:44:29.543Z,14448.00
2023-09-03T11:45:29.513Z,14852.00
2023-09-03T11:46:29.508Z,14912.00
2023-09-03T11:47:29.460Z,15460.00
2023-09-03T11:48:29.437Z,15564.00
2023-09-03T11:49:29.405Z,17344.00
2023-09-03T11:50:29.363Z,16736.00
2023-09-03T11:51:29.846Z,15020.00
2023-09-03T11:52:29.300Z,15676.00
2023-09-03T11:53:29.291Z,15968.00
2023-09-03T11:54:29.262Z,14848.00
2023-09-03T11:55:29.240Z,15072.00
2023-09-03T11:56:29.192Z,15492.00
2023-09-03T11:57:29.155Z,15936.00
2023-09-03T11:58:29.128Z,15036.00
2023-09-03T11:59:29.100Z,16000.00
2023-09-03T12:00:29.090Z,15372.00
2023-09-03T12:01:29.078Z,15092.00
2023-09-03T12:02:29.010Z,14632.00
2023-09-03T12:03:29.127Z,15184.00
2023-09-03T12:04:28.962Z,15556.00
2023-09-03T12:05:28.922Z,15176.00
2023-09-03T12:06:28.882Z,15272.00
2023-09-03T12:07:28.856Z,16768.00
2023-09-03T12:08:28.836Z,17472.00
2023-09-03T12:09:28.807Z,16864.00
2023-09-03T12:10:28.910Z,16160.00
2023-09-03T12:11:28.738Z,16608.00
2023-09-03T12:12:28.723Z,15428.00
2023-09-03T12:13:28.676Z,15572.00
2023-09-03T12:14:28.648Z,15216.00
2023-09-03T12:15:28.614Z,15272.00
2023-09-03T12:16:28.682Z,14844.00
2023-09-03T12:17:28.691Z,14520.00
2023-09-03T12:18:28.552Z,14096.00
2023-09-03T12:19:28.536Z,13792.00
2023-09-03T12:20:28.480Z,13696.00
2023-09-03T12:21:28.463Z,13496.00
2023-09-03T12:22:28.409Z,13380.00
2023-09-03T12:23:28.389Z,13284.00
2023-09-03T12:24:28.346Z,13384.00
2023-09-03T12:25:28.310Z,13420.00
2023-09-03T12:26:28.281Z,12896.00
2023-09-03T12:27:28.266Z,13588.00
2023-09-03T12:28:28.221Z,13328.00
2023-09-03T12:29:41.814Z,13060.00